Capron, Oklahoma
Current Conditions -  °F | °C
As of 11:30 PM on Wednesday 22 Oct 2014 (Local Time) from KAVK Reporting Station
Overcast Overcast  
Wind Chill: 61°   Ceiling: 7500
Heat Index: 61°   Visibility: 10mi
Dew Point: 57°   Wind: 9mph
Humidity: 88%   Direction: 170°S
Pressure: 30.09"   Gusts: NA
Location:  36.8367°N, 98.8022°W
Report Text: KAVK 230430Z AUTO 17008KT 10SM FEW032 OVC075 16/14 A3009 RMK AO2
Loading
Personal Weather Stations






























Interactive Weather Map New forecast layout! Learn more

10-Day Weather Forecast

Advertisements
Track Severe Weather on mobile